createdAt,value
2019-01-25T00:01:29.023Z,101240.09
2019-01-25T00:09:11.484Z,101229.33
2019-01-25T00:12:56.126Z,101226.41
2019-01-25T00:16:40.779Z,101220.50
2019-01-25T00:20:25.448Z,101221.66
2019-01-25T00:24:10.359Z,101220.53
2019-01-25T00:27:35.998Z,101236.80
2019-01-25T00:31:20.637Z,101238.22
2019-01-25T00:34:57.770Z,101238.09
2019-01-25T00:42:32.671Z,101242.55
2019-01-25T00:45:58.231Z,101239.99
2019-01-25T00:49:43.137Z,101243.69
2019-01-25T00:53:27.789Z,101226.23
2019-01-25T00:57:12.443Z,101229.48
2019-01-25T01:00:57.074Z,101223.54
2019-01-25T01:04:41.700Z,101226.06
2019-01-25T01:08:26.572Z,101222.56
2019-01-25T01:12:11.181Z,101223.16
2019-01-25T01:15:55.818Z,101226.41
2019-01-25T01:20:01.600Z,101235.57
2019-01-25T01:23:46.250Z,101237.73
2019-01-25T01:27:31.203Z,101248.27
2019-01-25T01:31:15.882Z,101243.87
2019-01-25T01:34:53.301Z,101240.64
2019-01-25T01:38:37.920Z,101244.69
2019-01-25T01:42:22.601Z,101241.70
2019-01-25T01:46:07.235Z,101247.20
2019-01-25T01:49:51.916Z,101247.34
2019-01-25T01:57:40.090Z,101245.75
2019-01-25T02:01:24.726Z,101247.59
2019-01-25T02:05:09.616Z,101256.00
2019-01-25T02:08:54.266Z,101248.67
2019-01-25T02:12:38.890Z,101248.99
2019-01-25T02:16:23.571Z,101255.17
2019-01-25T02:20:10.257Z,101248.92
2019-01-25T02:23:54.898Z,101258.30
2019-01-25T02:27:39.518Z,101243.91
2019-01-25T02:31:24.198Z,101242.61
2019-01-25T02:35:09.112Z,101241.15
2019-01-25T02:38:46.120Z,101249.86
2019-01-25T02:42:30.763Z,101247.75
2019-01-25T02:46:15.391Z,101244.78
2019-01-25T02:50:00.064Z,101255.95
2019-01-25T02:53:44.879Z,101241.36
2019-01-25T02:57:29.511Z,101247.95
2019-01-25T03:01:14.158Z,101254.23
2019-01-25T03:04:58.839Z,101252.42
2019-01-25T03:08:43.784Z,101251.93
2019-01-25T03:12:28.438Z,101260.50
2019-01-25T03:16:13.451Z,101263.48
2019-01-25T03:19:58.115Z,101253.78
2019-01-25T03:27:46.196Z,101254.20
2019-01-25T03:31:30.856Z,101255.62
2019-01-25T03:35:08.320Z,101251.58
2019-01-25T03:38:53.310Z,101248.69
2019-01-25T03:42:37.984Z,101243.73
2019-01-25T03:46:22.613Z,101246.59
2019-01-25T03:50:08.364Z,101244.84
2019-01-25T03:53:52.996Z,101251.30
2019-01-25T03:57:37.620Z,101251.83
2019-01-25T04:01:22.587Z,101256.81
2019-01-25T04:05:08.806Z,101253.95
2019-01-25T04:08:53.435Z,101256.30
2019-01-25T04:12:38.088Z,101257.33
2019-01-25T04:16:22.711Z,101255.00
2019-01-25T04:20:09.629Z,101254.97
2019-01-25T04:23:54.266Z,101248.76
2019-01-25T04:27:38.969Z,101251.52
2019-01-25T04:31:23.580Z,101241.42
2019-01-25T04:35:08.303Z,101243.00
2019-01-25T04:38:53.679Z,101236.63
2019-01-25T04:42:38.333Z,101235.34
2019-01-25T04:46:23.008Z,101232.94
2019-01-25T04:54:00.479Z,101231.72
2019-01-25T04:57:45.128Z,101229.91
2019-01-25T05:01:29.776Z,101225.86
2019-01-25T05:05:14.422Z,101226.24
2019-01-25T05:08:59.057Z,101231.02
2019-01-25T05:12:44.526Z,101233.81
2019-01-25T05:16:29.160Z,101249.56
2019-01-25T05:20:13.813Z,101246.55
2019-01-25T05:23:58.415Z,101250.36
2019-01-25T05:27:43.036Z,101253.58
2019-01-25T05:31:29.347Z,101258.53
2019-01-25T05:35:06.783Z,101269.36
2019-01-25T05:38:51.409Z,101269.91
2019-01-25T05:42:36.046Z,101279.55
2019-01-25T05:46:20.647Z,101290.87
2019-01-25T05:50:06.474Z,101293.23
2019-01-25T05:54:10.215Z,101300.16
2019-01-25T05:58:00.966Z,101306.86
2019-01-25T06:01:46.984Z,101298.13
2019-01-25T06:09:35.167Z,101304.75
2019-01-25T06:21:00.393Z,101293.30
2019-01-25T06:25:24.663Z,101294.87
2019-01-25T06:29:09.474Z,101286.31
2019-01-25T06:32:54.167Z,101287.58
2019-01-25T06:36:31.142Z,101285.48
2019-01-25T06:40:15.849Z,101283.17
2019-01-25T06:44:00.494Z,101288.73
2019-01-25T06:47:45.120Z,101289.45
2019-01-25T06:51:29.738Z,101289.26
2019-01-25T06:55:14.381Z,101291.00
2019-01-25T07:03:04.742Z,101288.56
2019-01-25T07:06:49.366Z,101284.09
2019-01-25T07:10:33.999Z,101287.38
2019-01-25T07:14:18.636Z,101299.14
2019-01-25T07:18:03.300Z,101301.03
2019-01-25T07:21:47.964Z,101298.13
2019-01-25T07:25:31.987Z,101305.63
2019-01-25T07:29:16.635Z,101299.53
2019-01-25T07:33:01.299Z,101299.63
2019-01-25T07:36:39.370Z,101303.06
2019-01-25T07:44:14.018Z,101305.50
2019-01-25T07:47:58.973Z,101306.50
2019-01-25T07:51:43.645Z,101313.54
2019-01-25T07:55:28.302Z,101314.06
2019-01-25T07:59:13.269Z,101311.16
2019-01-25T08:06:48.652Z,101314.30
2019-01-25T08:10:53.858Z,101315.89
2019-01-25T08:14:57.488Z,101305.40
2019-01-25T08:18:34.765Z,101305.91
2019-01-25T08:22:19.526Z,101311.78
2019-01-25T08:26:04.228Z,101323.71
2019-01-25T08:29:48.907Z,101327.23
2019-01-25T08:33:33.587Z,101319.23
2019-01-25T08:37:18.275Z,101322.49
2019-01-25T08:44:53.909Z,101320.48
2019-01-25T08:48:38.910Z,101328.37
2019-01-25T08:52:04.552Z,101325.03
2019-01-25T08:55:49.213Z,101327.30
2019-01-25T08:59:33.903Z,101325.41
2019-01-25T09:03:18.921Z,101315.12
2019-01-25T09:07:03.569Z,101316.86
2019-01-25T09:10:48.187Z,101328.16
2019-01-25T09:14:32.847Z,101327.63
2019-01-25T09:18:10.635Z,101322.98
2019-01-25T09:21:55.519Z,101328.33
2019-01-25T09:25:40.146Z,101323.77
2019-01-25T09:29:24.765Z,101332.47
2019-01-25T09:33:11.926Z,101330.88
2019-01-25T09:36:56.546Z,101332.56
2019-01-25T09:40:41.497Z,101343.20
2019-01-25T09:44:26.133Z,101352.09
2019-01-25T09:48:31.101Z,101343.25
2019-01-25T09:56:06.028Z,101335.22
2019-01-25T10:03:41.233Z,101330.45
2019-01-25T10:11:15.403Z,101327.89
2019-01-25T10:18:42.658Z,101326.22
2019-01-25T10:30:10.374Z,101315.00
2019-01-25T10:33:54.986Z,101311.56
2019-01-25T10:37:39.658Z,101308.38
2019-01-25T10:41:24.273Z,101305.11
2019-01-25T10:45:13.871Z,101294.51
2019-01-25T10:48:58.793Z,101287.72
2019-01-25T10:52:43.500Z,101275.41
2019-01-25T10:56:28.115Z,101278.22
2019-01-25T11:00:15.136Z,101278.10
2019-01-25T11:11:52.986Z,101266.03
2019-01-25T11:15:37.622Z,101272.12
2019-01-25T11:19:14.620Z,101257.06
2019-01-25T11:26:49.130Z,101253.67
2019-01-25T11:30:34.069Z,101250.47
2019-01-25T11:34:18.720Z,101241.97
2019-01-25T11:38:22.383Z,101248.99
2019-01-25T11:42:07.027Z,101234.47
2019-01-25T11:45:54.342Z,101226.54
2019-01-25T11:53:28.260Z,101214.87
2019-01-25T11:57:12.880Z,101209.34
2019-01-25T12:00:57.544Z,101213.86
2019-01-25T12:04:42.160Z,101221.46
2019-01-25T12:08:27.328Z,101234.27
2019-01-25T12:12:11.966Z,101231.20
2019-01-25T12:19:53.274Z,101233.18
2019-01-25T12:27:27.883Z,101233.87
2019-01-25T12:31:12.512Z,101236.28
2019-01-25T12:34:57.164Z,101233.21
2019-01-25T12:43:04.181Z,101205.12
2019-01-25T12:46:48.816Z,101196.45
2019-01-25T12:50:42.568Z,101185.84
2019-01-25T12:58:17.044Z,101184.69
2019-01-25T13:02:20.516Z,101193.25
2019-01-25T13:06:05.882Z,101192.27
2019-01-25T13:13:41.218Z,101189.89
2019-01-25T13:17:26.226Z,101179.92
2019-01-25T13:21:03.285Z,101174.77
2019-01-25T13:24:48.220Z,101166.33
2019-01-25T13:28:33.166Z,101176.91
2019-01-25T13:32:17.944Z,101180.72
2019-01-25T13:36:21.420Z,101169.47
2019-01-25T13:44:12.213Z,101164.27
2019-01-25T13:47:56.867Z,101165.61
2019-01-25T13:51:41.534Z,101162.83
2019-01-25T13:55:26.696Z,101159.60
2019-01-25T13:59:11.368Z,101154.39
2019-01-25T14:02:56.021Z,101140.94
2019-01-25T14:06:41.394Z,101128.92
2019-01-25T14:10:28.327Z,101124.54
2019-01-25T14:14:13.019Z,101114.63
2019-01-25T14:17:57.680Z,101101.17
2019-01-25T14:21:33.517Z,101087.95
2019-01-25T14:25:18.195Z,101089.85
2019-01-25T14:29:02.875Z,101073.33
2019-01-25T14:32:47.613Z,101079.86
2019-01-25T14:36:32.536Z,101074.13
2019-01-25T14:40:17.266Z,101075.86
2019-01-25T14:44:01.905Z,101059.31
2019-01-25T14:47:46.190Z,101068.78
2019-01-25T14:51:30.901Z,101057.83
2019-01-25T14:55:15.592Z,101068.78
2019-01-25T14:59:00.229Z,101068.73
2019-01-25T15:02:44.913Z,101079.45
2019-01-25T15:06:29.998Z,101083.38
2019-01-25T15:10:08.843Z,101084.73
2019-01-25T15:13:53.500Z,101093.02
2019-01-25T15:17:38.159Z,101090.20
2019-01-25T15:21:22.849Z,101101.13
2019-01-25T15:25:26.424Z,101089.17
2019-01-25T15:29:13.849Z,101085.72
2019-01-25T15:37:24.271Z,101056.88
2019-01-25T15:41:08.962Z,101059.97
2019-01-25T15:44:36.278Z,101047.81
2019-01-25T15:48:21.317Z,101052.56
2019-01-25T15:52:06.172Z,101042.94
2019-01-25T15:55:50.927Z,101046.72
2019-01-25T15:59:35.711Z,101048.22
2019-01-25T16:03:20.403Z,101042.71
2019-01-25T16:07:05.738Z,101043.98
2019-01-25T16:10:44.643Z,101037.40
2019-01-25T16:14:29.444Z,101035.01
2019-01-25T16:18:14.753Z,101036.47
2019-01-25T16:21:59.479Z,101028.16
2019-01-25T16:25:44.221Z,101022.28
2019-01-25T16:29:28.268Z,101020.56
2019-01-25T16:33:13.089Z,101009.70
2019-01-25T16:36:57.700Z,101004.27
2019-01-25T16:40:42.355Z,101004.58
2019-01-25T16:44:27.081Z,100985.02
2019-01-25T16:48:11.939Z,100971.36
2019-01-25T16:51:56.906Z,100979.63
2019-01-25T16:55:41.614Z,100956.67
2019-01-25T16:59:45.963Z,100969.67
2019-01-25T17:03:31.330Z,100980.32
2019-01-25T17:07:16.086Z,100978.70
2019-01-25T17:10:54.200Z,100962.84
2019-01-25T17:14:39.077Z,100968.02
2019-01-25T17:18:23.736Z,100948.89
2019-01-25T17:22:08.453Z,100956.98
2019-01-25T17:25:53.568Z,100951.24
2019-01-25T17:29:38.266Z,100946.22
2019-01-25T17:33:22.920Z,100943.32
2019-01-25T17:37:07.625Z,100946.53
2019-01-25T17:45:25.153Z,100946.89
2019-01-25T17:49:10.094Z,100937.07
2019-01-25T17:52:54.749Z,100932.48
2019-01-25T17:56:39.435Z,100914.74
2019-01-25T18:00:47.901Z,100922.97
2019-01-25T18:04:32.579Z,100923.84
2019-01-25T18:08:17.224Z,100916.89
2019-01-25T18:11:54.302Z,100920.02
2019-01-25T18:15:39.290Z,100921.29
2019-01-25T18:19:24.262Z,100908.02
2019-01-25T18:23:08.912Z,100904.27
2019-01-25T18:26:34.670Z,100905.47
2019-01-25T18:30:40.761Z,100901.77
2019-01-25T18:34:25.537Z,100914.06
2019-01-25T18:38:10.479Z,100908.52
2019-01-25T18:41:55.171Z,100909.73
2019-01-25T18:45:39.840Z,100900.88
2019-01-25T18:49:24.925Z,100887.69
2019-01-25T18:53:09.981Z,100884.14
2019-01-25T18:56:55.365Z,100883.42
2019-01-25T19:04:51.327Z,100872.16
2019-01-25T19:08:16.977Z,100874.97
2019-01-25T19:12:01.647Z,100869.80
2019-01-25T19:15:46.348Z,100874.23
2019-01-25T19:19:30.997Z,100868.70
2019-01-25T19:23:15.736Z,100869.90
2019-01-25T19:27:00.501Z,100863.38
2019-01-25T19:30:46.108Z,100868.31
2019-01-25T19:34:30.780Z,100860.78
2019-01-25T19:38:17.925Z,100860.13
2019-01-25T19:42:02.655Z,100854.24
2019-01-25T19:45:47.574Z,100848.33
2019-01-25T19:49:32.281Z,100847.12
2019-01-25T19:53:35.957Z,100849.41
2019-01-25T19:57:20.559Z,100842.10
2019-01-25T20:01:05.322Z,100843.25
2019-01-25T20:04:42.402Z,100841.11
2019-01-25T20:08:27.054Z,100834.32
2019-01-25T20:12:11.678Z,100840.05
2019-01-25T20:15:56.288Z,100835.30
2019-01-25T20:19:40.920Z,100834.22
2019-01-25T20:27:29.190Z,100825.45
2019-01-25T20:31:13.818Z,100824.41
2019-01-25T20:34:58.480Z,100813.22
2019-01-25T20:38:43.087Z,100811.31
2019-01-25T20:42:28.064Z,100817.80
2019-01-25T20:46:12.931Z,100825.23
2019-01-25T20:49:57.548Z,100821.62
2019-01-25T20:53:42.184Z,100824.28
2019-01-25T21:01:30.399Z,100817.03
2019-01-25T21:05:07.744Z,100823.36
2019-01-25T21:08:52.384Z,100813.95
2019-01-25T21:12:37.021Z,100816.42
2019-01-25T21:16:21.675Z,100810.02
2019-01-25T21:20:28.439Z,100817.19
2019-01-25T21:28:16.614Z,100805.38
2019-01-25T21:32:01.246Z,100801.61
2019-01-25T21:35:45.881Z,100800.14
2019-01-25T21:39:30.674Z,100802.55
2019-01-25T21:43:14.765Z,100794.05
2019-01-25T21:46:59.604Z,100783.50
2019-01-25T21:50:37.681Z,100787.89
2019-01-25T21:54:22.433Z,100784.74
2019-01-25T21:58:25.905Z,100777.84
2019-01-25T22:02:10.894Z,100779.30
2019-01-25T22:05:48.379Z,100780.94
2019-01-25T22:09:33.028Z,100776.17
2019-01-25T22:13:36.642Z,100767.98
2019-01-25T22:17:40.433Z,100770.83
2019-01-25T22:21:25.291Z,100763.36
2019-01-25T22:25:10.202Z,100768.81
2019-01-25T22:28:55.210Z,100758.81
2019-01-25T22:32:39.835Z,100753.41
2019-01-25T22:36:24.511Z,100750.16
2019-01-25T22:40:14.794Z,100747.47
2019-01-25T22:43:59.399Z,100736.12
2019-01-25T22:47:44.073Z,100749.95
2019-01-25T22:51:20.983Z,100757.41
2019-01-25T22:55:09.888Z,100759.65
2019-01-25T22:58:54.511Z,100767.58
2019-01-25T23:02:39.276Z,100758.81
2019-01-25T23:06:36.084Z,100739.34
2019-01-25T23:10:22.459Z,100748.21
2019-01-25T23:14:07.474Z,100742.47
2019-01-25T23:17:52.095Z,100737.48
2019-01-25T23:21:36.721Z,100740.48
2019-01-25T23:25:21.365Z,100741.36
2019-01-25T23:29:06.203Z,100747.09
2019-01-25T23:32:50.815Z,100752.29
2019-01-25T23:36:35.459Z,100754.23
2019-01-25T23:40:20.365Z,100749.08
2019-01-25T23:44:05.014Z,100747.17
2019-01-25T23:47:49.628Z,100740.34
2019-01-25T23:51:26.715Z,100728.31
2019-01-25T23:55:11.528Z,100737.17
2019-01-25T23:58:56.159Z,100730.34
